createdAt,value
2022-11-13T00:29:45.956Z,0
2022-11-13T00:30:26.226Z,0
2022-11-13T00:31:06.742Z,0
2022-11-13T00:37:10.949Z,0
2022-11-13T00:37:51.434Z,0
2022-11-13T00:38:31.878Z,0
2022-11-13T00:39:12.304Z,0
2022-11-13T00:39:57.035Z,0
2022-11-13T00:40:33.252Z,0
2022-11-13T00:41:13.733Z,0
2022-11-13T00:41:54.252Z,0
2022-11-13T00:42:34.733Z,0
2022-11-13T00:43:15.205Z,0
2022-11-13T00:43:55.687Z,0
2022-11-13T00:51:20.951Z,0
2022-11-13T00:52:01.420Z,0
2022-11-13T00:52:41.899Z,0
2022-11-13T00:53:22.420Z,0
2022-11-13T00:54:02.866Z,0
2022-11-13T00:54:43.320Z,0
2022-11-13T00:55:23.793Z,0
2022-11-13T00:56:04.282Z,0
2022-11-13T00:56:44.811Z,0
2022-11-13T00:57:25.271Z,0
2022-11-13T00:58:05.703Z,0
2022-11-13T01:04:51.103Z,0
2022-11-13T01:05:31.595Z,0
2022-11-13T01:06:52.549Z,0
2022-11-13T01:07:32.963Z,0
2022-11-13T01:08:13.422Z,0
2022-11-13T01:08:53.887Z,0
2022-11-13T01:09:34.391Z,0
2022-11-13T01:10:14.849Z,0
2022-11-13T01:10:55.291Z,0
2022-11-13T01:19:01.031Z,0
2022-11-13T01:19:41.501Z,0
2022-11-13T01:20:21.996Z,0
2022-11-13T01:21:02.504Z,0
2022-11-13T01:21:42.991Z,0
2022-11-13T01:22:23.469Z,0
2022-11-13T01:23:03.891Z,0
2022-11-13T01:23:44.372Z,0
2022-11-13T01:24:24.853Z,0
2022-11-13T01:25:05.340Z,0
2022-11-13T01:33:10.956Z,0
2022-11-13T01:33:51.426Z,0
2022-11-13T01:34:31.889Z,0
2022-11-13T01:35:12.416Z,0
2022-11-13T01:35:52.879Z,0
2022-11-13T01:36:33.363Z,0
2022-11-13T01:37:13.834Z,0
2022-11-13T01:37:54.314Z,0
2022-11-13T01:38:36.783Z,0
2022-11-13T01:39:15.262Z,0
2022-11-13T01:47:27.795Z,0
2022-11-13T01:48:07.900Z,0
2022-11-13T01:48:48.375Z,0
2022-11-13T01:52:43.678Z,0
2022-11-13T01:53:24.009Z,0
2022-11-13T01:54:04.546Z,0
2022-11-13T01:59:28.300Z,0
2022-11-13T02:00:08.786Z,0
2022-11-13T02:00:49.343Z,0
2022-11-13T02:01:29.798Z,0
2022-11-13T02:02:10.320Z,0
2022-11-13T02:02:50.843Z,0
2022-11-13T02:03:31.204Z,0
2022-11-13T02:04:11.717Z,0
2022-11-13T02:04:52.133Z,0
2022-11-13T02:05:32.592Z,0
2022-11-13T02:06:13.076Z,0
2022-11-13T02:15:25.647Z,0
2022-11-13T02:16:06.209Z,0
2022-11-13T02:16:46.671Z,0
2022-11-13T02:17:27.150Z,0
2022-11-13T02:22:10.533Z,0
2022-11-13T02:22:51.092Z,0
2022-11-13T02:23:31.613Z,0
2022-11-13T02:24:12.019Z,0
2022-11-13T02:24:54.872Z,0
2022-11-13T02:25:32.982Z,0
2022-11-13T02:26:13.484Z,0
2022-11-13T02:26:53.993Z,0
2022-11-13T02:27:34.477Z,0
2022-11-13T02:28:14.966Z,0
2022-11-13T02:35:40.413Z,0
2022-11-13T02:36:20.895Z,0
2022-11-13T02:37:01.331Z,0
2022-11-13T02:37:41.827Z,0
2022-11-13T02:38:22.349Z,0
2022-11-13T02:39:02.802Z,0
2022-11-13T02:39:43.293Z,0
2022-11-13T02:40:23.808Z,0
2022-11-13T02:41:44.794Z,0
2022-11-13T02:42:25.278Z,0
2022-11-13T02:49:10.325Z,0
2022-11-13T02:49:50.693Z,0
2022-11-13T02:50:31.148Z,0
2022-11-13T02:51:11.603Z,0
2022-11-13T02:51:52.084Z,0
2022-11-13T02:52:32.628Z,0
2022-11-13T02:53:13.030Z,0
2022-11-13T02:53:53.537Z,0
2022-11-13T02:54:34.007Z,0
2022-11-13T02:55:14.428Z,0
2022-11-13T02:55:54.969Z,0
2022-11-13T03:04:00.707Z,0
2022-11-13T03:05:10.091Z,0
2022-11-13T03:05:21.672Z,0
2022-11-13T03:06:02.159Z,0
2022-11-13T03:06:42.673Z,0
2022-11-13T03:07:23.175Z,0
2022-11-13T03:08:03.579Z,0
2022-11-13T03:08:44.058Z,0
2022-11-13T03:09:24.572Z,0
2022-11-13T03:10:05.033Z,0
2022-11-13T03:17:30.326Z,0
2022-11-13T03:18:10.819Z,0
2022-11-13T03:18:51.341Z,0
2022-11-13T03:19:31.825Z,0
2022-11-13T03:20:12.448Z,0
2022-11-13T03:20:52.821Z,0
2022-11-13T03:21:33.373Z,0
2022-11-13T03:22:13.803Z,0
2022-11-13T03:22:54.290Z,0
2022-11-13T03:23:34.774Z,0
2022-11-13T03:24:15.280Z,0
2022-11-13T03:31:40.571Z,0
2022-11-13T03:32:21.076Z,0
2022-11-13T03:34:59.658Z,0
2022-11-13T03:35:44.288Z,0
2022-11-13T03:36:20.599Z,0
2022-11-13T03:41:44.380Z,0
2022-11-13T03:42:24.898Z,0
2022-11-13T03:43:05.329Z,0
2022-11-13T03:43:45.775Z,0
2022-11-13T03:44:26.248Z,0
2022-11-13T03:45:06.743Z,0
2022-11-13T03:45:47.201Z,0
2022-11-13T03:46:27.670Z,0
2022-11-13T03:47:08.094Z,0
2022-11-13T03:47:48.624Z,0
2022-11-13T03:48:29.392Z,0
2022-11-13T03:55:54.357Z,0
2022-11-13T03:56:34.778Z,0
2022-11-13T03:57:15.269Z,0
2022-11-13T03:57:55.748Z,0
2022-11-13T03:58:39.919Z,0
2022-11-13T03:59:16.719Z,0
2022-11-13T03:59:57.238Z,0
2022-11-13T04:00:37.711Z,0
2022-11-13T04:01:18.227Z,0
2022-11-13T04:01:58.678Z,0
2022-11-13T04:02:39.116Z,0
2022-11-13T04:10:04.294Z,0
2022-11-13T04:10:44.750Z,0
2022-11-13T04:11:25.264Z,0
2022-11-13T04:12:05.728Z,0
2022-11-13T04:12:46.234Z,0
2022-11-13T04:13:26.677Z,0
2022-11-13T04:14:07.177Z,0
2022-11-13T04:14:47.687Z,0
2022-11-13T04:15:28.173Z,0
2022-11-13T04:16:08.612Z,0
2022-11-13T04:16:49.171Z,0
2022-11-13T04:24:14.403Z,0
2022-11-13T04:24:54.874Z,0
2022-11-13T04:25:35.325Z,0
2022-11-13T04:26:15.792Z,0
2022-11-13T04:26:56.298Z,0
2022-11-13T04:27:36.736Z,0
2022-11-13T04:28:17.199Z,0
2022-11-13T04:28:57.661Z,0
2022-11-13T04:29:38.210Z,0
2022-11-13T04:30:18.676Z,0
2022-11-13T04:30:59.242Z,0
2022-11-13T04:37:45.886Z,0
2022-11-13T04:38:26.404Z,0
2022-11-13T04:39:06.629Z,0
2022-11-13T04:39:47.066Z,0
2022-11-13T04:40:27.539Z,0
2022-11-13T04:41:08.047Z,0
2022-11-13T04:41:52.588Z,0
2022-11-13T04:42:28.991Z,0
2022-11-13T04:49:54.283Z,0
2022-11-13T04:50:34.743Z,0
2022-11-13T04:51:15.236Z,0
2022-11-13T04:51:55.736Z,0
2022-11-13T04:52:36.195Z,0
2022-11-13T04:53:16.814Z,0
2022-11-13T04:53:57.197Z,0
2022-11-13T04:54:37.642Z,0
2022-11-13T04:55:18.108Z,0
2022-11-13T04:55:58.645Z,0
2022-11-13T05:04:04.462Z,0
2022-11-13T05:04:44.900Z,0
2022-11-13T05:05:25.415Z,0
2022-11-13T05:06:05.875Z,0
2022-11-13T05:06:46.404Z,0
2022-11-13T05:07:26.853Z,0
2022-11-13T05:08:07.312Z,0
2022-11-13T05:08:47.948Z,0
2022-11-13T05:09:28.222Z,0
2022-11-13T05:10:09.117Z,0
2022-11-13T05:16:54.260Z,0
2022-11-13T05:17:34.710Z,0
2022-11-13T05:18:15.244Z,0
2022-11-13T05:18:55.705Z,0
2022-11-13T05:19:36.144Z,0
2022-11-13T05:22:29.301Z,0
2022-11-13T05:23:09.754Z,0
2022-11-13T05:23:50.384Z,0
2022-11-13T05:29:14.071Z,0
2022-11-13T05:29:54.566Z,0
2022-11-13T05:30:35.039Z,0
2022-11-13T05:31:15.589Z,0
2022-11-13T05:31:56.041Z,0
2022-11-13T05:32:36.583Z,0
2022-11-13T05:33:17.017Z,0
2022-11-13T05:34:01.244Z,0
2022-11-13T05:34:38.022Z,0
2022-11-13T05:35:18.505Z,0
2022-11-13T05:43:24.325Z,0
2022-11-13T05:44:04.831Z,0
2022-11-13T05:44:45.310Z,0
2022-11-13T05:45:25.794Z,0
2022-11-13T05:46:06.293Z,0
2022-11-13T05:46:46.761Z,0
2022-11-13T05:47:27.251Z,0
2022-11-13T05:48:07.695Z,0
2022-11-13T05:48:48.171Z,0
2022-11-13T06:31:34.010Z,0
2022-11-13T06:32:14.414Z,0
2022-11-13T06:32:54.909Z,0
2022-11-13T06:33:35.417Z,0
2022-11-13T06:38:18.754Z,0
2022-11-13T06:38:59.346Z,0
2022-11-13T06:39:39.769Z,0
2022-11-13T06:40:20.261Z,0
2022-11-13T06:41:00.744Z,0
2022-11-13T06:41:41.186Z,0
2022-11-13T06:42:21.647Z,0
2022-11-13T06:43:02.163Z,0
2022-11-13T06:43:42.615Z,0
2022-11-13T06:44:23.056Z,0
2022-11-13T06:45:03.550Z,0
2022-11-13T06:52:28.868Z,5
2022-11-13T06:53:09.346Z,5
2022-11-13T06:53:49.845Z,5
2022-11-13T06:54:30.336Z,10
2022-11-13T06:55:10.790Z,10
2022-11-13T06:55:51.282Z,10
2022-11-13T06:56:31.781Z,10
2022-11-13T06:57:12.260Z,5
2022-11-13T06:57:52.833Z,5
2022-11-13T06:58:33.262Z,5
2022-11-13T06:59:13.721Z,5
2022-11-13T07:06:40.574Z,15
2022-11-13T07:07:19.690Z,15
2022-11-13T07:08:00.155Z,15
2022-11-13T07:08:40.666Z,15
2022-11-13T07:09:21.180Z,15
2022-11-13T07:10:01.771Z,15
2022-11-13T07:10:42.140Z,15
2022-11-13T07:11:22.672Z,20
2022-11-13T07:12:03.176Z,20
2022-11-13T07:12:43.692Z,20
2022-11-13T07:20:09.217Z,20
2022-11-13T07:20:49.626Z,20
2022-11-13T07:21:30.126Z,20
2022-11-13T07:25:09.109Z,20
2022-11-13T07:25:49.595Z,20
2022-11-13T07:26:30.079Z,20
2022-11-13T07:27:10.567Z,20
2022-11-13T07:31:53.919Z,20
2022-11-13T07:32:34.443Z,20
2022-11-13T07:33:15.020Z,20
2022-11-13T07:33:55.430Z,25
2022-11-13T07:34:35.944Z,25
2022-11-13T07:35:16.398Z,25
2022-11-13T07:35:56.891Z,25
2022-11-13T07:36:37.322Z,25
2022-11-13T07:37:17.884Z,25
2022-11-13T07:37:58.296Z,25
2022-11-13T07:38:38.769Z,25
2022-11-13T07:46:04.233Z,25
2022-11-13T07:46:44.722Z,25
2022-11-13T07:47:25.208Z,25
2022-11-13T07:48:05.710Z,25
2022-11-13T07:48:46.362Z,25
2022-11-13T07:49:26.717Z,25
2022-11-13T07:50:10.818Z,25
2022-11-13T07:50:47.802Z,25
2022-11-13T07:51:28.266Z,25
2022-11-13T07:52:08.754Z,25
2022-11-13T07:59:34.066Z,25
2022-11-13T08:00:14.656Z,25
2022-11-13T08:00:55.119Z,25
2022-11-13T08:01:35.645Z,25
2022-11-13T08:02:16.092Z,25
2022-11-13T08:02:56.586Z,25
2022-11-13T08:03:37.088Z,25
2022-11-13T08:04:17.657Z,25
2022-11-13T08:04:58.004Z,25
2022-11-13T08:05:38.492Z,25
2022-11-13T08:13:03.935Z,25
2022-11-13T08:15:32.030Z,25
2022-11-13T08:16:12.375Z,25
2022-11-13T08:16:52.886Z,25
2022-11-13T08:22:16.661Z,30
2022-11-13T08:22:57.141Z,30
2022-11-13T08:23:37.643Z,30
2022-11-13T08:24:18.126Z,30
2022-11-13T08:24:58.613Z,30
2022-11-13T08:25:39.024Z,30
2022-11-13T08:26:19.517Z,30
2022-11-13T08:26:59.991Z,30
2022-11-13T08:27:40.481Z,30
2022-11-13T08:28:20.964Z,30
2022-11-13T08:29:01.489Z,30
2022-11-13T08:36:26.818Z,30
2022-11-13T08:37:07.307Z,30
2022-11-13T08:37:47.794Z,30
2022-11-13T08:38:28.643Z,30
2022-11-13T08:39:08.780Z,30
2022-11-13T08:39:49.292Z,30
2022-11-13T08:40:29.815Z,30
2022-11-13T08:41:10.332Z,30
2022-11-13T08:41:50.781Z,30
2022-11-13T08:42:31.302Z,30
2022-11-13T08:49:56.759Z,30
2022-11-13T08:50:37.385Z,30
2022-11-13T08:51:17.748Z,30
2022-11-13T08:51:58.236Z,30
2022-11-13T08:52:38.698Z,30
2022-11-13T08:53:19.163Z,30
2022-11-13T08:53:59.623Z,30
2022-11-13T08:54:40.124Z,30
2022-11-13T08:55:20.604Z,30
2022-11-13T08:56:01.156Z,30
2022-11-13T08:56:41.579Z,30
2022-11-13T09:04:06.971Z,30
2022-11-13T09:04:47.460Z,30
2022-11-13T09:05:27.933Z,30
2022-11-13T09:06:48.860Z,30
2022-11-13T09:07:29.343Z,30
2022-11-13T09:08:09.806Z,30
2022-11-13T09:08:50.350Z,30
2022-11-13T09:09:30.833Z,30
2022-11-13T09:10:11.289Z,30
2022-11-13T09:17:36.677Z,30
2022-11-13T09:18:17.086Z,30
2022-11-13T09:18:57.598Z,30
2022-11-13T09:19:38.090Z,30
2022-11-13T09:20:22.649Z,30
2022-11-13T09:20:59.031Z,30
2022-11-13T09:21:39.645Z,30
2022-11-13T09:22:20.051Z,30
2022-11-13T09:23:00.565Z,30
2022-11-13T09:23:41.102Z,30
2022-11-13T09:24:21.570Z,30
2022-11-13T09:31:46.985Z,30
2022-11-13T09:32:27.486Z,30
2022-11-13T09:33:07.930Z,30
2022-11-13T09:34:28.902Z,30
2022-11-13T09:35:09.376Z,30
2022-11-13T09:35:49.857Z,30
2022-11-13T09:36:30.340Z,30
2022-11-13T09:37:10.960Z,30
2022-11-13T09:37:51.321Z,30
2022-11-13T09:45:16.746Z,30
2022-11-13T09:45:57.246Z,30
2022-11-13T09:46:37.742Z,30
2022-11-13T09:47:18.245Z,30
2022-11-13T09:47:58.712Z,30
2022-11-13T09:48:39.174Z,30
2022-11-13T09:50:00.169Z,30
2022-11-13T09:50:40.662Z,30
2022-11-13T09:51:21.095Z,30
2022-11-13T09:52:05.345Z,30
2022-11-13T09:59:26.904Z,30
2022-11-13T10:00:07.409Z,30
2022-11-13T10:00:47.867Z,30
2022-11-13T10:01:28.354Z,30
2022-11-13T10:02:08.873Z,30
2022-11-13T10:02:49.317Z,30
2022-11-13T10:04:14.157Z,30
2022-11-13T10:04:50.795Z,30
2022-11-13T10:05:31.272Z,30
2022-11-13T10:13:37.081Z,30
2022-11-13T10:14:17.545Z,30
2022-11-13T10:14:58.051Z,30
2022-11-13T10:15:38.498Z,30
2022-11-13T10:16:19.002Z,30
2022-11-13T10:16:59.471Z,30
2022-11-13T10:17:39.953Z,30
2022-11-13T10:18:20.481Z,30
2022-11-13T10:19:00.898Z,30
2022-11-13T10:19:41.411Z,30
2022-11-13T10:27:06.673Z,30
2022-11-13T10:27:47.179Z,30
2022-11-13T10:28:49.245Z,30
2022-11-13T10:29:08.144Z,30
2022-11-13T10:29:49.248Z,30
2022-11-13T10:30:29.120Z,30
2022-11-13T10:31:09.609Z,30
2022-11-13T10:31:50.095Z,30
2022-11-13T10:32:30.564Z,30
2022-11-13T10:33:51.489Z,30
2022-11-13T10:41:16.762Z,30
2022-11-13T10:41:57.243Z,30
2022-11-13T10:42:37.714Z,30
2022-11-13T10:43:58.675Z,30
2022-11-13T10:44:39.193Z,30
2022-11-13T10:45:19.621Z,30
2022-11-13T10:46:00.108Z,30
2022-11-13T10:46:40.575Z,30
2022-11-13T10:47:36.426Z,30
2022-11-13T10:48:04.527Z,30
2022-11-13T10:54:06.805Z,30
2022-11-13T10:54:47.374Z,30
2022-11-13T10:55:27.752Z,30
2022-11-13T10:56:08.300Z,30
2022-11-13T10:56:48.785Z,30
2022-11-13T10:57:29.279Z,30
2022-11-13T10:58:09.784Z,30
2022-11-13T10:58:50.336Z,30
2022-11-13T10:59:30.820Z,30
2022-11-13T11:00:11.256Z,30
2022-11-13T11:07:36.588Z,30
2022-11-13T11:08:17.089Z,30
2022-11-13T11:08:57.511Z,30
2022-11-13T11:09:38.007Z,30
2022-11-13T11:10:18.554Z,30
2022-11-13T11:10:58.950Z,30
2022-11-13T11:11:39.419Z,30
2022-11-13T11:12:21.253Z,30
2022-11-13T11:13:00.443Z,30
2022-11-13T11:13:40.864Z,30
2022-11-13T11:14:21.329Z,30
2022-11-13T11:22:18.442Z,30
2022-11-13T11:22:58.936Z,30
2022-11-13T11:23:39.309Z,30
2022-11-13T11:29:03.117Z,30
2022-11-13T11:29:43.588Z,30
2022-11-13T11:30:24.091Z,30
2022-11-13T11:31:04.634Z,30
2022-11-13T11:31:45.012Z,30
2022-11-13T11:32:25.461Z,30
2022-11-13T11:33:05.955Z,30
2022-11-13T11:33:46.423Z,30
2022-11-13T11:34:26.896Z,30
2022-11-13T11:35:07.337Z,30
2022-11-13T11:35:47.871Z,30
2022-11-13T11:43:13.211Z,30
2022-11-13T11:43:53.685Z,30
2022-11-13T11:44:34.197Z,30
2022-11-13T11:45:14.637Z,30
2022-11-13T11:45:55.187Z,30
2022-11-13T11:46:35.646Z,30
2022-11-13T11:47:16.159Z,30
2022-11-13T11:47:56.589Z,30
2022-11-13T11:48:37.041Z,30
2022-11-13T11:49:17.530Z,30
2022-11-13T11:49:58.064Z,30
2022-11-13T12:32:45.516Z,30
2022-11-13T12:33:25.839Z,30
2022-11-13T12:34:06.339Z,30
2022-11-13T12:39:30.150Z,30
2022-11-13T12:40:10.649Z,30
2022-11-13T12:40:51.106Z,30
2022-11-13T12:41:31.609Z,30
2022-11-13T12:42:12.039Z,30
2022-11-13T12:42:52.511Z,30
2022-11-13T12:43:32.980Z,30
2022-11-13T12:44:13.459Z,30
2022-11-13T12:44:53.954Z,30
2022-11-13T12:45:34.484Z,30
2022-11-13T12:46:14.894Z,30
2022-11-13T12:53:40.183Z,25
2022-11-13T12:54:20.701Z,25
2022-11-13T12:55:01.212Z,25
2022-11-13T12:55:41.671Z,25
2022-11-13T12:56:22.144Z,25
2022-11-13T12:57:02.622Z,25
2022-11-13T12:57:43.070Z,25
2022-11-13T12:58:23.521Z,25
2022-11-13T12:59:28.951Z,25
2022-11-13T12:59:44.509Z,25
2022-11-13T13:00:24.977Z,25
2022-11-13T13:07:50.198Z,20
2022-11-13T13:08:30.984Z,20
2022-11-13T13:09:11.179Z,20
2022-11-13T13:09:51.667Z,20
2022-11-13T13:10:32.180Z,20
2022-11-13T13:11:12.672Z,20
2022-11-13T13:11:53.177Z,20
2022-11-13T13:12:33.722Z,20
2022-11-13T13:13:16.216Z,20
2022-11-13T13:13:54.724Z,20
2022-11-13T13:14:35.174Z,20
2022-11-13T13:22:00.546Z,15
2022-11-13T13:22:41.014Z,15
2022-11-13T13:23:21.457Z,15
2022-11-13T13:24:01.913Z,15
2022-11-13T13:24:42.375Z,15
2022-11-13T13:25:22.875Z,15
2022-11-13T13:26:03.375Z,15
2022-11-13T13:26:43.856Z,15
2022-11-13T13:28:04.828Z,15
2022-11-13T13:35:30.095Z,15
2022-11-13T13:36:10.575Z,15
2022-11-13T13:36:51.101Z,15
2022-11-13T13:37:31.563Z,15
2022-11-13T13:38:12.030Z,15
2022-11-13T13:38:52.813Z,15
2022-11-13T13:39:33.019Z,15
2022-11-13T13:40:13.474Z,15
2022-11-13T13:40:53.983Z,15
2022-11-13T13:41:34.427Z,15
2022-11-13T13:42:14.951Z,15
2022-11-13T13:49:40.262Z,15
2022-11-13T13:50:20.852Z,15
2022-11-13T13:51:01.169Z,15
2022-11-13T13:51:41.773Z,15
2022-11-13T13:52:22.144Z,15
2022-11-13T13:53:02.613Z,15
2022-11-13T13:53:43.120Z,15
2022-11-13T13:54:23.642Z,15
2022-11-13T13:55:04.109Z,15
2022-11-13T13:55:44.609Z,15
2022-11-13T13:56:25.058Z,15
2022-11-13T14:05:44.159Z,15
2022-11-13T14:06:24.446Z,15
2022-11-13T14:07:05.006Z,15
2022-11-13T14:12:28.853Z,15
2022-11-13T14:13:09.316Z,15
2022-11-13T14:15:47.408Z,15
2022-11-13T14:16:27.865Z,15
2022-11-13T14:17:08.412Z,15
2022-11-13T14:22:32.266Z,15
2022-11-13T14:23:12.701Z,15
2022-11-13T14:23:53.197Z,15
2022-11-13T14:24:33.805Z,15
2022-11-13T14:25:14.201Z,15
2022-11-13T14:25:54.611Z,15
2022-11-13T14:26:35.168Z,15
2022-11-13T14:27:15.694Z,15
2022-11-13T14:27:56.156Z,15
2022-11-13T14:28:36.656Z,15
2022-11-13T14:36:02.005Z,35
2022-11-13T14:36:42.569Z,35
2022-11-13T14:37:22.962Z,35
2022-11-13T14:38:03.434Z,35
2022-11-13T14:38:47.709Z,40
2022-11-13T14:39:24.396Z,50
2022-11-13T14:40:05.066Z,55
2022-11-13T14:40:45.323Z,55
2022-11-13T14:41:25.794Z,55
2022-11-13T14:42:06.271Z,55
2022-11-13T14:42:46.744Z,55
2022-11-13T14:50:12.087Z,60
2022-11-13T14:50:52.579Z,60
2022-11-13T14:51:33.055Z,60
2022-11-13T14:52:13.631Z,60
2022-11-13T14:52:53.979Z,60
2022-11-13T14:53:34.485Z,60
2022-11-13T14:54:15.010Z,60
2022-11-13T14:55:13.988Z,60
2022-11-13T14:55:36.050Z,60
2022-11-13T14:56:16.547Z,60
2022-11-13T14:56:57.072Z,60
2022-11-13T15:04:22.480Z,60
2022-11-13T15:05:02.973Z,65
2022-11-13T15:05:43.493Z,65
2022-11-13T15:06:23.980Z,65
2022-11-13T15:07:04.486Z,65
2022-11-13T15:07:45.085Z,65
2022-11-13T15:08:25.414Z,60
2022-11-13T15:09:05.937Z,55
2022-11-13T15:09:46.406Z,55
2022-11-13T15:10:26.897Z,55
2022-11-13T15:17:52.416Z,35
2022-11-13T15:18:32.918Z,35
2022-11-13T15:19:13.419Z,30
2022-11-13T15:19:53.934Z,30
2022-11-13T15:20:34.454Z,30
2022-11-13T15:21:14.985Z,30
2022-11-13T15:22:20.772Z,25
2022-11-13T15:22:35.962Z,25
2022-11-13T15:23:16.596Z,25
2022-11-13T15:23:56.999Z,25
2022-11-13T15:32:02.948Z,15
2022-11-13T15:32:43.407Z,15
2022-11-13T15:33:23.945Z,10
2022-11-13T15:34:04.396Z,10
2022-11-13T15:34:44.868Z,10
2022-11-13T15:35:25.334Z,10
2022-11-13T15:36:05.877Z,10
2022-11-13T15:36:46.364Z,10
2022-11-13T15:37:26.810Z,10
2022-11-13T15:44:52.213Z,0
2022-11-13T15:45:32.608Z,0
2022-11-13T15:46:13.098Z,0
2022-11-13T15:46:53.632Z,0
2022-11-13T15:47:34.131Z,0
2022-11-13T15:48:14.663Z,0
2022-11-13T15:48:55.101Z,0
2022-11-13T15:49:35.600Z,0
2022-11-13T15:50:16.515Z,0
2022-11-13T15:50:56.536Z,0
2022-11-13T15:58:14.076Z,0
2022-11-13T15:58:54.580Z,0
2022-11-13T15:59:35.037Z,0
2022-11-13T16:04:58.954Z,0
2022-11-13T16:05:39.390Z,0
2022-11-13T16:06:19.853Z,0
2022-11-13T16:07:00.385Z,0
2022-11-13T16:07:42.245Z,0
2022-11-13T16:08:21.317Z,0
2022-11-13T16:09:42.388Z,0
2022-11-13T16:10:22.776Z,0
2022-11-13T16:11:03.253Z,0
2022-11-13T16:11:43.811Z,0
2022-11-13T16:17:39.376Z,0
2022-11-13T16:18:19.841Z,0
2022-11-13T16:19:00.679Z,0
2022-11-13T16:24:24.518Z,0
2022-11-13T16:25:04.868Z,0
2022-11-13T16:25:45.288Z,0
2022-11-13T16:26:25.736Z,0
2022-11-13T16:27:06.344Z,0
2022-11-13T16:27:46.735Z,0
2022-11-13T16:28:27.221Z,0
2022-11-13T16:29:13.431Z,0
2022-11-13T16:29:48.754Z,0
2022-11-13T16:30:28.687Z,0
2022-11-13T16:40:27.183Z,0
2022-11-13T16:41:07.556Z,0
2022-11-13T16:41:48.043Z,0
2022-11-13T16:47:11.906Z,0
2022-11-13T16:47:52.439Z,0
2022-11-13T16:48:32.889Z,0
2022-11-13T16:49:13.390Z,0
2022-11-13T16:49:53.919Z,0
2022-11-13T16:50:34.371Z,0
2022-11-13T16:51:14.842Z,0
2022-11-13T16:52:35.872Z,0
2022-11-13T16:53:16.346Z,0
2022-11-13T16:53:56.807Z,0
2022-11-13T17:01:22.237Z,0
2022-11-13T17:02:02.659Z,0
2022-11-13T17:02:43.073Z,0
2022-11-13T17:03:23.556Z,0
2022-11-13T17:04:04.050Z,0
2022-11-13T17:05:25.082Z,0
2022-11-13T17:06:05.547Z,0
2022-11-13T17:06:46.077Z,0
2022-11-13T17:07:26.644Z,0
2022-11-13T17:14:52.007Z,0
2022-11-13T17:15:32.499Z,0
2022-11-13T17:16:12.994Z,0
2022-11-13T17:16:53.477Z,0
2022-11-13T17:17:33.977Z,0
2022-11-13T17:18:14.459Z,0
2022-11-13T17:18:54.961Z,0
2022-11-13T17:19:35.492Z,0
2022-11-13T17:20:15.889Z,0
2022-11-13T17:20:56.390Z,0
2022-11-13T17:21:40.013Z,0
2022-11-13T17:26:11.883Z,0
2022-11-13T17:26:52.519Z,0
2022-11-13T17:27:33.750Z,0
2022-11-13T17:31:36.623Z,0
2022-11-13T17:32:17.143Z,0
2022-11-13T17:32:57.599Z,0
2022-11-13T17:33:38.083Z,0
2022-11-13T17:34:18.542Z,0
2022-11-13T17:34:58.988Z,0
2022-11-13T17:35:39.454Z,0
2022-11-13T17:36:19.919Z,0
2022-11-13T17:37:00.519Z,0
2022-11-13T17:37:40.987Z,0
2022-11-13T17:38:21.445Z,0
2022-11-13T17:45:46.777Z,0
2022-11-13T17:46:27.329Z,0
2022-11-13T17:47:07.785Z,0
2022-11-13T17:47:48.361Z,0
2022-11-13T17:48:28.796Z,0
2022-11-13T17:49:09.259Z,0
2022-11-13T17:49:49.790Z,0
2022-11-13T17:50:30.251Z,0
2022-11-13T17:51:10.722Z,0
2022-11-13T17:51:51.204Z,0
2022-11-13T18:34:45.377Z,0
2022-11-13T18:35:25.731Z,0
2022-11-13T18:36:06.282Z,0
2022-11-13T18:41:30.085Z,0
2022-11-13T18:42:10.573Z,0
2022-11-13T18:42:51.054Z,0
2022-11-13T18:43:31.738Z,0
2022-11-13T18:44:12.040Z,0
2022-11-13T18:44:52.538Z,0
2022-11-13T18:45:33.027Z,0
2022-11-13T18:46:13.495Z,0
2022-11-13T18:46:54.021Z,0
2022-11-13T18:47:34.482Z,0
2022-11-13T18:48:14.936Z,0
2022-11-13T18:55:40.243Z,0
2022-11-13T18:56:20.738Z,0
2022-11-13T18:59:59.668Z,0
2022-11-13T19:00:40.150Z,0
2022-11-13T19:01:22.455Z,0
2022-11-13T19:06:44.669Z,0
2022-11-13T19:07:25.100Z,0
2022-11-13T19:08:05.544Z,0
2022-11-13T19:08:46.025Z,0
2022-11-13T19:09:26.534Z,0
2022-11-13T19:10:06.976Z,0
2022-11-13T19:10:47.443Z,0
2022-11-13T19:11:27.910Z,0
2022-11-13T19:12:08.409Z,0
2022-11-13T19:12:48.865Z,0
2022-11-13T19:13:29.325Z,0
2022-11-13T19:20:54.663Z,0
2022-11-13T19:21:35.010Z,0
2022-11-13T19:22:15.474Z,0
2022-11-13T19:22:55.956Z,0
2022-11-13T19:23:36.419Z,0
2022-11-13T19:24:16.934Z,0
2022-11-13T19:24:57.374Z,0
2022-11-13T19:25:37.861Z,0
2022-11-13T19:26:18.388Z,0
2022-11-13T19:26:58.855Z,0
2022-11-13T19:27:39.340Z,0
2022-11-13T19:35:04.724Z,0
2022-11-13T19:35:45.128Z,0
2022-11-13T19:36:25.722Z,0
2022-11-13T19:37:06.080Z,0
2022-11-13T19:37:46.559Z,0
2022-11-13T19:38:27.278Z,0
2022-11-13T19:39:07.471Z,0
2022-11-13T19:39:47.997Z,0
2022-11-13T19:40:28.407Z,0
2022-11-13T19:41:08.901Z,0
2022-11-13T19:49:14.728Z,0
2022-11-13T19:49:55.154Z,0
2022-11-13T19:50:35.595Z,0
2022-11-13T19:51:16.078Z,0
2022-11-13T19:51:56.726Z,0
2022-11-13T19:52:37.061Z,0
2022-11-13T19:53:17.562Z,0
2022-11-13T19:53:58.042Z,0
2022-11-13T19:54:38.547Z,0
2022-11-13T19:55:19.041Z,0
2022-11-13T20:02:45.030Z,0
2022-11-13T20:03:25.447Z,0
2022-11-13T20:04:05.956Z,0
2022-11-13T20:04:46.474Z,0
2022-11-13T20:05:26.995Z,0
2022-11-13T20:06:07.481Z,0
2022-11-13T20:06:48.036Z,0
2022-11-13T20:07:28.637Z,0
2022-11-13T20:08:08.913Z,0
2022-11-13T20:16:05.857Z,0
2022-11-13T20:16:46.311Z,0
2022-11-13T20:17:26.784Z,0
2022-11-13T20:22:50.672Z,0
2022-11-13T20:23:31.055Z,0
2022-11-13T20:24:11.480Z,0
2022-11-13T20:24:51.989Z,0
2022-11-13T20:25:32.431Z,0
2022-11-13T20:26:12.929Z,0
2022-11-13T20:26:53.459Z,0
2022-11-13T20:27:37.213Z,0
2022-11-13T20:28:14.419Z,0
2022-11-13T20:28:54.855Z,0
2022-11-13T20:29:35.354Z,0
2022-11-13T20:37:00.665Z,0
2022-11-13T20:37:41.115Z,0
2022-11-13T20:38:21.728Z,0
2022-11-13T20:39:05.559Z,0
2022-11-13T20:39:42.581Z,0
2022-11-13T20:40:23.059Z,0
2022-11-13T20:41:03.549Z,0
2022-11-13T20:41:44.025Z,0
2022-11-13T20:42:24.501Z,0
2022-11-13T20:43:05.010Z,0
2022-11-13T20:43:45.489Z,0
2022-11-13T20:51:10.893Z,0
2022-11-13T20:51:54.691Z,0
2022-11-13T20:52:31.874Z,0
2022-11-13T20:53:12.353Z,0
2022-11-13T20:53:53.025Z,0
2022-11-13T20:54:33.382Z,0
2022-11-13T20:55:13.816Z,0
2022-11-13T20:55:54.291Z,0
2022-11-13T20:56:34.779Z,0
2022-11-13T20:57:15.283Z,0
2022-11-13T21:05:20.929Z,0
2022-11-13T21:06:01.444Z,0
2022-11-13T21:06:42.089Z,0
2022-11-13T21:07:22.561Z,0
2022-11-13T21:08:02.971Z,0
2022-11-13T21:08:43.459Z,0
2022-11-13T21:09:24.063Z,0
2022-11-13T21:10:04.426Z,0
2022-11-13T21:10:44.899Z,0
2022-11-13T21:11:25.364Z,0
2022-11-13T21:18:50.654Z,0
2022-11-13T21:19:31.081Z,0
2022-11-13T21:20:11.577Z,0
2022-11-13T21:20:51.990Z,0
2022-11-13T21:21:32.485Z,0
2022-11-13T21:22:13.005Z,0
2022-11-13T21:22:53.513Z,0
2022-11-13T21:23:33.965Z,0
2022-11-13T21:24:14.386Z,0
2022-11-13T21:24:54.971Z,0
2022-11-13T21:25:35.305Z,0
2022-11-13T21:33:00.505Z,0
2022-11-13T21:33:41.002Z,0
2022-11-13T21:34:21.463Z,0
2022-11-13T21:35:01.964Z,0
2022-11-13T21:35:42.446Z,0
2022-11-13T21:36:22.964Z,0
2022-11-13T21:37:43.894Z,0
2022-11-13T21:38:24.328Z,0
2022-11-13T21:39:04.776Z,0
2022-11-13T21:39:45.260Z,0
2022-11-13T21:47:50.888Z,0
2022-11-13T21:48:33.308Z,0
2022-11-13T21:49:11.831Z,0
2022-11-13T21:49:52.264Z,0
2022-11-13T21:50:32.714Z,0
2022-11-13T21:51:13.237Z,0
2022-11-13T21:51:53.660Z,0
2022-11-13T21:52:34.159Z,0
2022-11-13T21:53:14.637Z,0
2022-11-13T21:53:55.157Z,0
2022-11-13T22:00:40.498Z,0
2022-11-13T22:01:21.730Z,0
2022-11-13T22:02:01.489Z,0
2022-11-13T22:02:41.959Z,0
2022-11-13T22:03:22.439Z,0
2022-11-13T22:04:02.885Z,0
2022-11-13T22:05:23.865Z,0
2022-11-13T22:06:04.279Z,0
2022-11-13T22:06:44.839Z,0
2022-11-13T22:07:25.266Z,0
2022-11-13T22:14:50.438Z,0
2022-11-13T22:15:30.877Z,0
2022-11-13T22:16:11.379Z,0
2022-11-13T22:16:51.830Z,0
2022-11-13T22:17:32.331Z,0
2022-11-13T22:18:12.782Z,0
2022-11-13T22:18:53.293Z,0
2022-11-13T22:19:36.317Z,0
2022-11-13T22:20:14.256Z,0
2022-11-13T22:20:54.685Z,0
2022-11-13T22:21:35.144Z,0
2022-11-13T22:29:40.824Z,0
2022-11-13T22:30:21.842Z,0
2022-11-13T22:31:02.358Z,0
2022-11-13T22:31:42.773Z,0
2022-11-13T22:32:23.231Z,0
2022-11-13T22:33:03.694Z,0
2022-11-13T22:33:48.258Z,0
2022-11-13T22:34:24.615Z,0
2022-11-13T22:35:05.123Z,0
2022-11-13T22:41:50.541Z,0
2022-11-13T22:43:11.440Z,0
2022-11-13T22:43:51.899Z,0
2022-11-13T22:44:51.537Z,0
2022-11-13T22:45:23.096Z,0